sensor_id;sensor_type;location;lat;lon;timestamp;temperature;humidity
21928;DHT22;11128;51.096;17.190;2022-08-01T00:02:43;15.40;1.00
21928;DHT22;11128;51.096;17.190;2022-08-01T00:07:45;15.40;1.00
21928;DHT22;11128;51.096;17.190;2022-08-01T00:12:46;15.40;1.00
21928;DHT22;11128;51.096;17.190;2022-08-01T00:17:47;15.30;99.90
21928;DHT22;11128;51.096;17.190;2022-08-01T00:22:48;15.20;99.90
21928;DHT22;11128;51.096;17.190;2022-08-01T00:27:50;15.20;1.00
21928;DHT22;11128;51.096;17.190;2022-08-01T00:32:51;15.10;1.00
21928;DHT22;11128;51.096;17.190;2022-08-01T00:37:52;15.10;1.00
21928;DHT22;11128;51.096;17.190;2022-08-01T00:42:54;15.10;1.00
21928;DHT22;11128;51.096;17.190;2022-08-01T00:47:55;15.00;1.00
21928;DHT22;11128;51.096;17.190;2022-08-01T00:52:58;14.90;1.00
21928;DHT22;11128;51.096;17.190;2022-08-01T00:58:00;14.90;1.00
21928;DHT22;11128;51.096;17.190;2022-08-01T01:03:01;14.80;1.00
21928;DHT22;11128;51.096;17.190;2022-08-01T01:08:08;14.80;1.00
21928;DHT22;11128;51.096;17.190;2022-08-01T01:13:23;14.70;1.00
21928;DHT22;11128;51.096;17.190;2022-08-01T01:18:33;14.60;1.00
21928;DHT22;11128;51.096;17.190;2022-08-01T01:29:16;14.60;1.00
21928;DHT22;11128;51.096;17.190;2022-08-01T01:34:20;14.70;1.00
21928;DHT22;11128;51.096;17.190;2022-08-01T01:39:24;14.60;1.00
21928;DHT22;11128;51.096;17.190;2022-08-01T01:44:27;14.60;1.00
21928;DHT22;11128;51.096;17.190;2022-08-01T01:49:30;14.50;1.00
21928;DHT22;11128;51.096;17.190;2022-08-01T01:54:40;14.60;1.00
21928;DHT22;11128;51.096;17.190;2022-08-01T01:59:44;14.50;1.00
21928;DHT22;11128;51.096;17.190;2022-08-01T02:04:48;14.50;1.00
21928;DHT22;11128;51.096;17.190;2022-08-01T02:09:49;14.50;1.00
21928;DHT22;11128;51.096;17.190;2022-08-01T02:14:53;14.50;1.00
21928;DHT22;11128;51.096;17.190;2022-08-01T02:19:55;14.50;1.00
21928;DHT22;11128;51.096;17.190;2022-08-01T02:25:12;14.40;96.40
21928;DHT22;11128;51.096;17.190;2022-08-01T02:30:15;14.50;1.00
21928;DHT22;11128;51.096;17.190;2022-08-01T02:35:22;14.50;1.00
21928;DHT22;11128;51.096;17.190;2022-08-01T02:40:27;14.50;1.00
21928;DHT22;11128;51.096;17.190;2022-08-01T02:45:30;14.60;1.00
21928;DHT22;11128;51.096;17.190;2022-08-01T02:50:33;14.60;1.00
21928;DHT22;11128;51.096;17.190;2022-08-01T02:55:35;14.50;1.00
21928;DHT22;11128;51.096;17.190;2022-08-01T03:00:39;14.50;1.00
21928;DHT22;11128;51.096;17.190;2022-08-01T03:05:43;14.50;1.00
21928;DHT22;11128;51.096;17.190;2022-08-01T03:10:46;14.40;1.00
21928;DHT22;11128;51.096;17.190;2022-08-01T03:15:49;14.50;1.00
21928;DHT22;11128;51.096;17.190;2022-08-01T03:20:54;14.50;1.00
21928;DHT22;11128;51.096;17.190;2022-08-01T03:25:57;14.50;1.00
21928;DHT22;11128;51.096;17.190;2022-08-01T03:31:00;14.60;1.00
21928;DHT22;11128;51.096;17.190;2022-08-01T03:36:04;14.70;1.00
21928;DHT22;11128;51.096;17.190;2022-08-01T03:41:13;14.70;1.00
21928;DHT22;11128;51.096;17.190;2022-08-01T03:46:20;14.80;1.00
21928;DHT22;11128;51.096;17.190;2022-08-01T03:51:23;14.80;1.00
21928;DHT22;11128;51.096;17.190;2022-08-01T03:56:26;14.90;1.00
21928;DHT22;11128;51.096;17.190;2022-08-01T04:01:31;15.00;1.00
21928;DHT22;11128;51.096;17.190;2022-08-01T04:06:33;15.10;1.00
21928;DHT22;11128;51.096;17.190;2022-08-01T04:11:34;15.20;1.00
21928;DHT22;11128;51.096;17.190;2022-08-01T04:16:37;15.30;1.00
21928;DHT22;11128;51.096;17.190;2022-08-01T04:21:38;15.40;1.00
21928;DHT22;11128;51.096;17.190;2022-08-01T04:26:41;15.50;1.00
21928;DHT22;11128;51.096;17.190;2022-08-01T04:31:46;15.50;1.00
21928;DHT22;11128;51.096;17.190;2022-08-01T04:36:48;15.70;1.00
21928;DHT22;11128;51.096;17.190;2022-08-01T04:41:51;15.70;1.00
21928;DHT22;11128;51.096;17.190;2022-08-01T04:46:53;15.60;99.90
21928;DHT22;11128;51.096;17.190;2022-08-01T04:51:56;15.50;99.90
21928;DHT22;11128;51.096;17.190;2022-08-01T04:56:58;15.60;99.90
21928;DHT22;11128;51.096;17.190;2022-08-01T05:02:03;15.70;99.90
21928;DHT22;11128;51.096;17.190;2022-08-01T05:07:05;15.70;99.90
21928;DHT22;11128;51.096;17.190;2022-08-01T05:12:08;15.80;99.90
21928;DHT22;11128;51.096;17.190;2022-08-01T05:17:10;15.80;99.90
21928;DHT22;11128;51.096;17.190;2022-08-01T05:22:12;15.90;99.90
21928;DHT22;11128;51.096;17.190;2022-08-01T05:27:13;15.90;99.90
21928;DHT22;11128;51.096;17.190;2022-08-01T05:32:14;16.00;99.90
21928;DHT22;11128;51.096;17.190;2022-08-01T05:37:16;15.90;99.90
21928;DHT22;11128;51.096;17.190;2022-08-01T05:42:18;16.00;1.00
21928;DHT22;11128;51.096;17.190;2022-08-01T05:47:20;16.00;99.90
21928;DHT22;11128;51.096;17.190;2022-08-01T05:52:21;16.20;92.10
21928;DHT22;11128;51.096;17.190;2022-08-01T05:57:23;16.40;90.40
21928;DHT22;11128;51.096;17.190;2022-08-01T06:02:24;16.40;72.10
21928;DHT22;11128;51.096;17.190;2022-08-01T06:07:27;16.60;1.00
21928;DHT22;11128;51.096;17.190;2022-08-01T06:12:29;16.60;1.00
21928;DHT22;11128;51.096;17.190;2022-08-01T06:17:30;16.70;1.00
21928;DHT22;11128;51.096;17.190;2022-08-01T06:22:33;16.80;1.00
21928;DHT22;11128;51.096;17.190;2022-08-01T06:27:34;16.90;1.00
21928;DHT22;11128;51.096;17.190;2022-08-01T06:32:36;17.20;1.00
21928;DHT22;11128;51.096;17.190;2022-08-01T06:37:38;17.30;1.00
21928;DHT22;11128;51.096;17.190;2022-08-01T06:42:39;17.50;1.00
21928;DHT22;11128;51.096;17.190;2022-08-01T06:47:41;17.70;99.90
21928;DHT22;11128;51.096;17.190;2022-08-01T06:52:43;17.90;1.00
21928;DHT22;11128;51.096;17.190;2022-08-01T06:57:50;18.20;1.00
21928;DHT22;11128;51.096;17.190;2022-08-01T07:02:55;18.40;99.90
21928;DHT22;11128;51.096;17.190;2022-08-01T07:07:56;18.60;1.00
21928;DHT22;11128;51.096;17.190;2022-08-01T07:12:58;18.80;99.90
21928;DHT22;11128;51.096;17.190;2022-08-01T07:18:00;19.00;99.90
21928;DHT22;11128;51.096;17.190;2022-08-01T07:23:05;19.30;99.90
21928;DHT22;11128;51.096;17.190;2022-08-01T07:28:07;19.60;1.00
21928;DHT22;11128;51.096;17.190;2022-08-01T07:33:08;19.80;1.00
21928;DHT22;11128;51.096;17.190;2022-08-01T07:38:10;20.30;1.00
21928;DHT22;11128;51.096;17.190;2022-08-01T07:43:12;20.60;1.00
21928;DHT22;11128;51.096;17.190;2022-08-01T07:48:13;20.80;1.00
21928;DHT22;11128;51.096;17.190;2022-08-01T07:53:15;21.10;1.00
21928;DHT22;11128;51.096;17.190;2022-08-01T07:58:17;21.50;1.00
21928;DHT22;11128;51.096;17.190;2022-08-01T08:03:18;22.10;1.00
21928;DHT22;11128;51.096;17.190;2022-08-01T08:08:19;22.80;99.90
21928;DHT22;11128;51.096;17.190;2022-08-01T08:13:21;23.40;1.00
21928;DHT22;11128;51.096;17.190;2022-08-01T08:18:22;23.60;1.00
21928;DHT22;11128;51.096;17.190;2022-08-01T08:23:24;23.50;1.00
21928;DHT22;11128;51.096;17.190;2022-08-01T08:28:46;23.00;99.90
21928;DHT22;11128;51.096;17.190;2022-08-01T08:33:48;22.70;1.00
21928;DHT22;11128;51.096;17.190;2022-08-01T08:38:49;22.70;99.90
21928;DHT22;11128;51.096;17.190;2022-08-01T08:43:51;22.80;99.90
21928;DHT22;11128;51.096;17.190;2022-08-01T08:48:55;23.20;99.90
21928;DHT22;11128;51.096;17.190;2022-08-01T08:53:58;24.00;1.00
21928;DHT22;11128;51.096;17.190;2022-08-01T08:59:01;24.40;99.90
21928;DHT22;11128;51.096;17.190;2022-08-01T09:04:03;24.30;99.90
21928;DHT22;11128;51.096;17.190;2022-08-01T09:09:06;24.30;99.90
21928;DHT22;11128;51.096;17.190;2022-08-01T09:14:13;24.30;1.00
21928;DHT22;11128;51.096;17.190;2022-08-01T09:19:16;24.50;1.00
21928;DHT22;11128;51.096;17.190;2022-08-01T09:24:18;24.50;99.90
21928;DHT22;11128;51.096;17.190;2022-08-01T09:29:23;24.60;99.90
21928;DHT22;11128;51.096;17.190;2022-08-01T09:34:26;25.10;99.90
21928;DHT22;11128;51.096;17.190;2022-08-01T09:39:30;26.00;99.60
21928;DHT22;11128;51.096;17.190;2022-08-01T09:44:39;26.50;96.00
21928;DHT22;11128;51.096;17.190;2022-08-01T09:49:42;26.60;34.80
21928;DHT22;11128;51.096;17.190;2022-08-01T09:54:53;26.30;11.20
21928;DHT22;11128;51.096;17.190;2022-08-01T09:59:57;26.10;33.70
21928;DHT22;11128;51.096;17.190;2022-08-01T10:05:00;26.60;6.70
21928;DHT22;11128;51.096;17.190;2022-08-01T10:10:15;26.80;1.00
21928;DHT22;11128;51.096;17.190;2022-08-01T10:15:17;27.10;1.00
21928;DHT22;11128;51.096;17.190;2022-08-01T10:20:22;27.00;1.00
21928;DHT22;11128;51.096;17.190;2022-08-01T10:25:27;27.30;1.00
21928;DHT22;11128;51.096;17.190;2022-08-01T10:30:29;27.70;1.00
21928;DHT22;11128;51.096;17.190;2022-08-01T10:35:31;28.80;1.00
21928;DHT22;11128;51.096;17.190;2022-08-01T10:40:33;29.20;1.00
21928;DHT22;11128;51.096;17.190;2022-08-01T10:45:37;29.30;1.00
21928;DHT22;11128;51.096;17.190;2022-08-01T10:50:44;30.10;1.00
21928;DHT22;11128;51.096;17.190;2022-08-01T10:56:01;29.60;1.00
21928;DHT22;11128;51.096;17.190;2022-08-01T11:01:13;29.60;1.00
21928;DHT22;11128;51.096;17.190;2022-08-01T11:06:17;30.20;1.00
21928;DHT22;11128;51.096;17.190;2022-08-01T11:11:19;30.40;1.00
21928;DHT22;11128;51.096;17.190;2022-08-01T11:16:28;30.90;1.00
21928;DHT22;11128;51.096;17.190;2022-08-01T11:32:24;30.30;1.00
21928;DHT22;11128;51.096;17.190;2022-08-01T11:37:27;29.40;1.00
21928;DHT22;11128;51.096;17.190;2022-08-01T11:42:29;30.00;1.00
21928;DHT22;11128;51.096;17.190;2022-08-01T11:47:51;29.50;1.00
21928;DHT22;11128;51.096;17.190;2022-08-01T11:53:01;28.80;1.00
21928;DHT22;11128;51.096;17.190;2022-08-01T11:58:07;28.30;1.00
21928;DHT22;11128;51.096;17.190;2022-08-01T12:03:09;28.20;1.00
21928;DHT22;11128;51.096;17.190;2022-08-01T12:08:10;28.30;1.00
21928;DHT22;11128;51.096;17.190;2022-08-01T12:13:12;28.20;1.00
21928;DHT22;11128;51.096;17.190;2022-08-01T12:18:14;28.00;1.00
21928;DHT22;11128;51.096;17.190;2022-08-01T12:23:16;27.90;1.00
21928;DHT22;11128;51.096;17.190;2022-08-01T12:28:18;28.40;1.00
21928;DHT22;11128;51.096;17.190;2022-08-01T12:33:20;28.60;1.00
21928;DHT22;11128;51.096;17.190;2022-08-01T12:38:22;28.60;1.00
21928;DHT22;11128;51.096;17.190;2022-08-01T12:43:26;28.90;1.00
21928;DHT22;11128;51.096;17.190;2022-08-01T12:48:30;28.90;1.00
21928;DHT22;11128;51.096;17.190;2022-08-01T12:53:35;28.90;1.00
21928;DHT22;11128;51.096;17.190;2022-08-01T12:58:37;28.70;1.00
21928;DHT22;11128;51.096;17.190;2022-08-01T13:03:40;28.30;1.00
21928;DHT22;11128;51.096;17.190;2022-08-01T13:08:42;28.00;1.00
21928;DHT22;11128;51.096;17.190;2022-08-01T13:13:46;29.20;1.00
21928;DHT22;11128;51.096;17.190;2022-08-01T13:18:53;30.40;1.00
21928;DHT22;11128;51.096;17.190;2022-08-01T13:29:10;30.60;1.00
21928;DHT22;11128;51.096;17.190;2022-08-01T13:34:13;30.90;1.00
21928;DHT22;11128;51.096;17.190;2022-08-01T13:39:14;31.50;1.00
21928;DHT22;11128;51.096;17.190;2022-08-01T13:44:35;32.00;1.00
21928;DHT22;11128;51.096;17.190;2022-08-01T13:49:37;32.40;1.00
21928;DHT22;11128;51.096;17.190;2022-08-01T13:54:38;32.70;1.00
21928;DHT22;11128;51.096;17.190;2022-08-01T13:59:40;31.60;1.00
21928;DHT22;11128;51.096;17.190;2022-08-01T14:04:41;31.00;1.00
21928;DHT22;11128;51.096;17.190;2022-08-01T14:09:43;30.80;1.00
21928;DHT22;11128;51.096;17.190;2022-08-01T14:14:45;31.60;1.00
21928;DHT22;11128;51.096;17.190;2022-08-01T14:19:47;31.80;1.00
21928;DHT22;11128;51.096;17.190;2022-08-01T14:24:48;31.90;1.00
21928;DHT22;11128;51.096;17.190;2022-08-01T14:29:50;31.90;1.00
21928;DHT22;11128;51.096;17.190;2022-08-01T14:34:52;31.50;1.00
21928;DHT22;11128;51.096;17.190;2022-08-01T14:39:55;31.50;1.00
21928;DHT22;11128;51.096;17.190;2022-08-01T14:44:56;31.30;1.00
21928;DHT22;11128;51.096;17.190;2022-08-01T14:49:58;31.40;1.00
21928;DHT22;11128;51.096;17.190;2022-08-01T14:55:00;31.20;1.00
21928;DHT22;11128;51.096;17.190;2022-08-01T15:00:06;30.90;1.00
21928;DHT22;11128;51.096;17.190;2022-08-01T15:05:09;30.70;1.00
21928;DHT22;11128;51.096;17.190;2022-08-01T15:10:10;30.80;1.00
21928;DHT22;11128;51.096;17.190;2022-08-01T15:15:12;30.50;1.00
21928;DHT22;11128;51.096;17.190;2022-08-01T15:20:14;30.20;1.00
21928;DHT22;11128;51.096;17.190;2022-08-01T15:25:15;30.00;1.00
21928;DHT22;11128;51.096;17.190;2022-08-01T15:30:17;29.70;1.00
21928;DHT22;11128;51.096;17.190;2022-08-01T15:35:19;29.40;1.00
21928;DHT22;11128;51.096;17.190;2022-08-01T15:40:21;28.80;1.00
21928;DHT22;11128;51.096;17.190;2022-08-01T15:45:24;28.30;1.00
21928;DHT22;11128;51.096;17.190;2022-08-01T15:50:26;28.10;1.00
21928;DHT22;11128;51.096;17.190;2022-08-01T15:55:28;28.10;1.00
21928;DHT22;11128;51.096;17.190;2022-08-01T16:00:30;27.80;1.00
21928;DHT22;11128;51.096;17.190;2022-08-01T16:05:32;27.40;1.00
21928;DHT22;11128;51.096;17.190;2022-08-01T16:10:35;26.90;1.00
21928;DHT22;11128;51.096;17.190;2022-08-01T16:15:37;26.40;84.20
21928;DHT22;11128;51.096;17.190;2022-08-01T16:20:42;25.90;99.90
21928;DHT22;11128;51.096;17.190;2022-08-01T16:25:44;25.50;99.90
21928;DHT22;11128;51.096;17.190;2022-08-01T16:30:46;25.50;99.90
21928;DHT22;11128;51.096;17.190;2022-08-01T16:35:48;25.40;99.90
21928;DHT22;11128;51.096;17.190;2022-08-01T16:40:51;25.10;99.90
21928;DHT22;11128;51.096;17.190;2022-08-01T16:45:54;24.90;99.90
21928;DHT22;11128;51.096;17.190;2022-08-01T16:50:55;24.60;1.00
21928;DHT22;11128;51.096;17.190;2022-08-01T16:55:57;24.40;1.00
21928;DHT22;11128;51.096;17.190;2022-08-01T17:00:59;24.00;73.20
21928;DHT22;11128;51.096;17.190;2022-08-01T17:06:01;23.80;99.90
21928;DHT22;11128;51.096;17.190;2022-08-01T17:11:03;23.70;99.90
21928;DHT22;11128;51.096;17.190;2022-08-01T17:16:06;23.40;1.00
21928;DHT22;11128;51.096;17.190;2022-08-01T17:21:08;23.30;1.00
21928;DHT22;11128;51.096;17.190;2022-08-01T17:26:10;23.20;1.00
21928;DHT22;11128;51.096;17.190;2022-08-01T17:31:13;23.20;84.20
21928;DHT22;11128;51.096;17.190;2022-08-01T17:36:15;23.20;1.00
21928;DHT22;11128;51.096;17.190;2022-08-01T17:41:19;23.10;99.90
21928;DHT22;11128;51.096;17.190;2022-08-01T17:46:20;22.90;99.90
21928;DHT22;11128;51.096;17.190;2022-08-01T17:51:22;22.70;8.90
21928;DHT22;11128;51.096;17.190;2022-08-01T17:56:25;22.60;99.90
21928;DHT22;11128;51.096;17.190;2022-08-01T18:01:30;22.50;1.00
21928;DHT22;11128;51.096;17.190;2022-08-01T18:06:32;22.50;1.00
21928;DHT22;11128;51.096;17.190;2022-08-01T18:11:34;22.40;1.00
21928;DHT22;11128;51.096;17.190;2022-08-01T18:16:37;22.40;99.90
21928;DHT22;11128;51.096;17.190;2022-08-01T18:21:40;22.30;1.00
21928;DHT22;11128;51.096;17.190;2022-08-01T18:26:43;22.20;1.00
21928;DHT22;11128;51.096;17.190;2022-08-01T18:31:46;22.10;99.90
21928;DHT22;11128;51.096;17.190;2022-08-01T18:36:49;22.00;1.00
21928;DHT22;11128;51.096;17.190;2022-08-01T18:41:51;21.90;82.80
21928;DHT22;11128;51.096;17.190;2022-08-01T18:46:53;21.80;99.90
21928;DHT22;11128;51.096;17.190;2022-08-01T18:51:56;21.70;1.00
21928;DHT22;11128;51.096;17.190;2022-08-01T18:56:59;21.70;99.90
21928;DHT22;11128;51.096;17.190;2022-08-01T19:02:01;21.50;1.00
21928;DHT22;11128;51.096;17.190;2022-08-01T19:07:03;21.50;1.00
21928;DHT22;11128;51.096;17.190;2022-08-01T19:12:04;21.50;1.00
21928;DHT22;11128;51.096;17.190;2022-08-01T19:17:06;21.50;1.00
21928;DHT22;11128;51.096;17.190;2022-08-01T19:22:09;21.40;99.90
21928;DHT22;11128;51.096;17.190;2022-08-01T19:27:15;21.30;99.90
21928;DHT22;11128;51.096;17.190;2022-08-01T19:32:20;21.30;99.90
21928;DHT22;11128;51.096;17.190;2022-08-01T19:37:24;21.30;99.90
21928;DHT22;11128;51.096;17.190;2022-08-01T19:42:28;21.20;99.90
21928;DHT22;11128;51.096;17.190;2022-08-01T19:47:32;21.10;1.00
21928;DHT22;11128;51.096;17.190;2022-08-01T19:52:37;21.00;1.00
21928;DHT22;11128;51.096;17.190;2022-08-01T19:57:40;21.00;1.00
21928;DHT22;11128;51.096;17.190;2022-08-01T20:02:44;21.00;1.00
21928;DHT22;11128;51.096;17.190;2022-08-01T20:07:47;21.00;1.00
21928;DHT22;11128;51.096;17.190;2022-08-01T20:12:50;21.00;1.00
21928;DHT22;11128;51.096;17.190;2022-08-01T20:17:56;21.00;1.00
21928;DHT22;11128;51.096;17.190;2022-08-01T20:22:58;21.10;1.00
21928;DHT22;11128;51.096;17.190;2022-08-01T20:28:02;21.10;1.00
21928;DHT22;11128;51.096;17.190;2022-08-01T20:33:06;21.10;1.00
21928;DHT22;11128;51.096;17.190;2022-08-01T20:38:08;21.10;1.00
21928;DHT22;11128;51.096;17.190;2022-08-01T20:43:12;21.10;99.90
21928;DHT22;11128;51.096;17.190;2022-08-01T20:48:15;21.20;99.90
21928;DHT22;11128;51.096;17.190;2022-08-01T20:53:17;21.20;99.90
21928;DHT22;11128;51.096;17.190;2022-08-01T21:04:09;21.20;99.90
21928;DHT22;11128;51.096;17.190;2022-08-01T21:09:20;21.20;99.90
21928;DHT22;11128;51.096;17.190;2022-08-01T21:14:31;21.20;99.90
21928;DHT22;11128;51.096;17.190;2022-08-01T21:19:34;21.10;99.90
21928;DHT22;11128;51.096;17.190;2022-08-01T21:24:54;21.10;99.90
21928;DHT22;11128;51.096;17.190;2022-08-01T21:30:04;21.10;1.00
21928;DHT22;11128;51.096;17.190;2022-08-01T21:35:06;21.10;99.90
21928;DHT22;11128;51.096;17.190;2022-08-01T21:40:09;21.10;99.90
21928;DHT22;11128;51.096;17.190;2022-08-01T21:45:11;21.10;1.00
21928;DHT22;11128;51.096;17.190;2022-08-01T21:50:14;21.00;99.90
21928;DHT22;11128;51.096;17.190;2022-08-01T21:55:35;20.90;99.90
21928;DHT22;11128;51.096;17.190;2022-08-01T22:00:39;20.90;1.00
21928;DHT22;11128;51.096;17.190;2022-08-01T22:05:47;20.80;1.00
21928;DHT22;11128;51.096;17.190;2022-08-01T22:10:56;20.70;1.00
21928;DHT22;11128;51.096;17.190;2022-08-01T22:15:58;20.80;1.00
21928;DHT22;11128;51.096;17.190;2022-08-01T22:21:01;20.70;1.00
21928;DHT22;11128;51.096;17.190;2022-08-01T22:26:07;20.70;1.00
21928;DHT22;11128;51.096;17.190;2022-08-01T22:31:09;20.70;1.00
21928;DHT22;11128;51.096;17.190;2022-08-01T22:36:11;20.70;1.00
21928;DHT22;11128;51.096;17.190;2022-08-01T22:41:15;20.70;1.00
21928;DHT22;11128;51.096;17.190;2022-08-01T22:56:44;20.50;1.00
21928;DHT22;11128;51.096;17.190;2022-08-01T23:01:48;20.50;1.00
21928;DHT22;11128;51.096;17.190;2022-08-01T23:06:53;20.40;73.20
21928;DHT22;11128;51.096;17.190;2022-08-01T23:12:03;20.30;99.90
21928;DHT22;11128;51.096;17.190;2022-08-01T23:17:05;20.40;99.90
21928;DHT22;11128;51.096;17.190;2022-08-01T23:22:09;20.30;99.90
21928;DHT22;11128;51.096;17.190;2022-08-01T23:27:11;20.30;99.90
21928;DHT22;11128;51.096;17.190;2022-08-01T23:32:26;20.30;99.90
21928;DHT22;11128;51.096;17.190;2022-08-01T23:37:29;20.30;27.80
21928;DHT22;11128;51.096;17.190;2022-08-01T23:42:30;20.30;12.60
21928;DHT22;11128;51.096;17.190;2022-08-01T23:47:32;20.30;25.60
21928;DHT22;11128;51.096;17.190;2022-08-01T23:52:34;20.30;1.00
21928;DHT22;11128;51.096;17.190;2022-08-01T23:57:35;20.30;1.00
